createdAt,value
2018-11-02T00:03:02.157Z,92.85
2018-11-02T00:06:05.762Z,92.94
2018-11-02T00:09:09.194Z,92.91
2018-11-02T00:12:12.779Z,93.46
2018-11-02T00:15:16.217Z,93.33
2018-11-02T00:18:19.891Z,92.38
2018-11-02T00:21:23.331Z,92.19
2018-11-02T00:24:27.438Z,92.53
2018-11-02T00:27:30.931Z,93.36
2018-11-02T00:30:34.477Z,93.88
2018-11-02T00:33:37.991Z,94.61
2018-11-02T00:36:41.599Z,93.75
2018-11-02T00:39:45.161Z,94.15
2018-11-02T00:42:48.713Z,94.14
2018-11-02T00:45:52.137Z,95.19
2018-11-02T00:48:55.960Z,94.82
2018-11-02T00:51:59.356Z,94.98
2018-11-02T00:55:02.838Z,93.67
2018-11-02T00:58:07.542Z,93.79
2018-11-02T01:01:11.021Z,93.73
2018-11-02T01:04:14.563Z,94.03
2018-11-02T01:07:18.052Z,93.87
2018-11-02T01:10:21.560Z,93.90
2018-11-02T01:13:25.001Z,93.90
2018-11-02T01:16:28.481Z,93.51
2018-11-02T01:19:33.875Z,92.82
2018-11-02T01:22:37.421Z,93.68
2018-11-02T01:25:40.879Z,93.03
2018-11-02T01:28:44.381Z,93.65
2018-11-02T01:31:47.951Z,93.44
2018-11-02T01:34:51.446Z,93.55
2018-11-02T01:37:54.946Z,93.06
2018-11-02T01:40:58.594Z,92.51
2018-11-02T01:44:02.085Z,92.27
2018-11-02T01:47:05.514Z,92.72
2018-11-02T01:50:08.990Z,92.85
2018-11-02T01:53:12.648Z,93.43
2018-11-02T01:56:16.207Z,92.88
2018-11-02T01:59:19.692Z,92.76
2018-11-02T02:02:23.079Z,93.83
2018-11-02T02:05:26.489Z,93.74
2018-11-02T02:08:29.903Z,92.86
2018-11-02T02:11:33.303Z,93.21
2018-11-02T02:14:36.872Z,93.74
2018-11-02T02:17:40.306Z,93.22
2018-11-02T02:20:43.758Z,93.56
2018-11-02T02:23:47.212Z,93.67
2018-11-02T02:26:50.677Z,94.38
2018-11-02T02:29:53.984Z,94.78
2018-11-02T02:32:57.387Z,94.77
2018-11-02T02:36:00.889Z,94.65
2018-11-02T02:39:05.216Z,93.72
2018-11-02T02:42:08.719Z,93.33
2018-11-02T02:45:12.854Z,93.84
2018-11-02T02:48:16.239Z,93.01
2018-11-02T02:51:19.863Z,92.62
2018-11-02T02:54:23.229Z,92.88
2018-11-02T02:57:26.901Z,93.50
2018-11-02T03:00:31.280Z,92.56
2018-11-02T03:03:34.728Z,91.61
2018-11-02T03:06:38.212Z,91.61
2018-11-02T03:09:41.690Z,91.70
2018-11-02T03:12:45.147Z,91.93
2018-11-02T03:15:48.585Z,92.07
2018-11-02T03:18:52.265Z,92.32
2018-11-02T03:21:55.569Z,93.00
2018-11-02T03:24:59.085Z,93.25
2018-11-02T03:28:02.613Z,93.82
2018-11-02T03:31:06.282Z,94.56
2018-11-02T03:34:09.691Z,94.91
2018-11-02T03:37:13.205Z,95.80
2018-11-02T03:40:16.764Z,95.93
2018-11-02T03:43:20.418Z,95.54
2018-11-02T03:46:23.904Z,95.75
2018-11-02T03:49:27.425Z,95.81
2018-11-02T03:52:30.974Z,95.34
2018-11-02T03:55:34.552Z,95.93
2018-11-02T03:58:38.090Z,96.10
2018-11-02T04:01:41.749Z,96.06
2018-11-02T04:04:45.415Z,96.34
2018-11-02T04:07:48.997Z,96.30
2018-11-02T04:10:53.500Z,97.28
2018-11-02T04:13:57.027Z,96.88
2018-11-02T04:17:00.577Z,97.39
2018-11-02T04:20:04.861Z,97.12
2018-11-02T04:23:08.402Z,96.28
2018-11-02T04:26:11.947Z,95.90
2018-11-02T04:29:16.153Z,95.77
2018-11-02T04:32:19.834Z,96.85
2018-11-02T04:35:23.356Z,96.13
2018-11-02T04:38:26.832Z,95.49
2018-11-02T04:41:32.392Z,95.45
2018-11-02T04:44:36.053Z,95.55
2018-11-02T04:47:39.657Z,95.71
2018-11-02T04:50:43.143Z,95.96
2018-11-02T04:53:47.716Z,95.77
2018-11-02T04:56:51.832Z,96.00
2018-11-02T04:59:55.408Z,95.33
2018-11-02T05:02:58.955Z,95.14
2018-11-02T05:06:02.530Z,95.01
2018-11-02T05:09:07.883Z,94.87
2018-11-02T05:12:11.475Z,94.57
2018-11-02T05:15:15.037Z,94.11
2018-11-02T05:18:18.607Z,93.83
2018-11-02T05:21:22.203Z,94.29
2018-11-02T05:24:25.796Z,93.89
2018-11-02T05:27:29.493Z,93.68
2018-11-02T05:30:32.953Z,93.12
2018-11-02T05:33:36.579Z,93.95
2018-11-02T05:36:40.121Z,94.40
2018-11-02T05:39:44.029Z,94.31
2018-11-02T05:42:47.562Z,95.01
2018-11-02T05:45:51.132Z,95.08
2018-11-02T05:48:54.757Z,94.57
2018-11-02T05:51:58.350Z,94.33
2018-11-02T05:55:01.873Z,94.19
2018-11-02T05:58:05.638Z,93.67
2018-11-02T06:01:09.123Z,93.94
2018-11-02T06:04:12.662Z,93.58
2018-11-02T06:07:16.215Z,94.31
2018-11-02T06:10:19.717Z,94.60
2018-11-02T06:13:23.337Z,94.76
2018-11-02T06:16:26.912Z,93.71
2018-11-02T06:19:30.458Z,93.30
2018-11-02T06:22:33.979Z,92.27
2018-11-02T06:25:37.505Z,91.70
2018-11-02T06:28:41.077Z,91.03
2018-11-02T06:31:44.601Z,90.44
2018-11-02T06:34:49.357Z,91.40
2018-11-02T06:37:52.947Z,91.63
2018-11-02T06:40:56.687Z,91.07
2018-11-02T06:44:00.362Z,91.19
2018-11-02T06:47:03.976Z,91.67
2018-11-02T06:50:07.898Z,91.68
2018-11-02T06:53:11.443Z,90.48
2018-11-02T06:56:15.005Z,90.20
2018-11-02T06:59:18.646Z,90.27
2018-11-02T07:02:22.041Z,90.89
2018-11-02T07:05:25.542Z,91.03
2018-11-02T07:08:29.470Z,91.70
2018-11-02T07:11:34.015Z,92.03
2018-11-02T07:14:37.501Z,91.82
2018-11-02T07:17:41.008Z,92.18
2018-11-02T07:20:44.545Z,93.07
2018-11-02T07:23:48.055Z,92.89
2018-11-02T07:26:51.656Z,93.46
2018-11-02T07:29:55.398Z,93.08
2018-11-02T07:32:59.029Z,93.99
2018-11-02T07:36:02.555Z,93.78
2018-11-02T07:39:09.281Z,94.14
2018-11-02T07:42:12.729Z,94.75
2018-11-02T07:45:16.253Z,94.60
2018-11-02T07:48:19.867Z,94.78
2018-11-02T07:51:24.259Z,94.78
2018-11-02T07:54:27.954Z,94.34
2018-11-02T07:57:31.643Z,93.74
2018-11-02T08:00:35.207Z,93.89
2018-11-02T08:03:39.085Z,93.93
2018-11-02T08:06:42.837Z,94.06
2018-11-02T08:09:46.510Z,93.08
2018-11-02T08:12:50.043Z,92.15
2018-11-02T08:15:53.542Z,91.96
2018-11-02T08:18:57.259Z,90.64
2018-11-02T08:22:00.799Z,89.87
2018-11-02T08:25:05.305Z,88.92
2018-11-02T08:28:09.171Z,88.94
2018-11-02T08:31:12.713Z,88.01
2018-11-02T08:34:16.313Z,86.78
2018-11-02T08:37:19.871Z,86.26
2018-11-02T08:40:23.674Z,86.53
2018-11-02T08:43:27.236Z,86.49
2018-11-02T08:46:30.898Z,86.65
2018-11-02T08:49:34.610Z,86.27
2018-11-02T08:52:38.114Z,85.46
2018-11-02T08:55:41.801Z,84.42
2018-11-02T08:58:46.706Z,85.30
2018-11-02T09:01:49.897Z,83.42
2018-11-02T09:04:53.667Z,84.85
2018-11-02T09:07:57.356Z,84.18
2018-11-02T09:11:00.870Z,82.30
2018-11-02T09:14:04.745Z,79.70
2018-11-02T09:17:08.620Z,81.34
2018-11-02T09:20:12.329Z,81.17
2018-11-02T09:23:16.470Z,80.85
2018-11-02T09:26:20.063Z,79.85
2018-11-02T09:29:23.543Z,78.74
2018-11-02T09:32:27.206Z,78.74
2018-11-02T09:35:30.729Z,78.67
2018-11-02T09:38:34.244Z,77.09
2018-11-02T09:41:37.783Z,76.47
2018-11-02T09:44:42.259Z,74.50
2018-11-02T09:47:45.751Z,76.07
2018-11-02T09:50:49.241Z,74.18
2018-11-02T09:53:52.813Z,74.84
2018-11-02T09:56:56.468Z,73.97
2018-11-02T10:00:00.034Z,72.68
2018-11-02T10:03:03.603Z,74.62
2018-11-02T10:06:07.109Z,72.00
2018-11-02T10:09:12.137Z,71.29
2018-11-02T10:12:15.587Z,71.75
2018-11-02T10:15:19.281Z,72.17
2018-11-02T10:18:22.963Z,72.03
2018-11-02T10:21:26.568Z,72.77
2018-11-02T10:24:30.064Z,71.88
2018-11-02T10:27:33.659Z,70.43
2018-11-02T10:30:37.256Z,72.08
2018-11-02T10:33:41.130Z,73.05
2018-11-02T10:36:44.777Z,72.65
2018-11-02T10:39:48.655Z,71.96
2018-11-02T10:42:58.599Z,68.71
2018-11-02T10:46:02.502Z,69.89
2018-11-02T10:49:06.338Z,70.14
2018-11-02T10:52:09.933Z,69.29
2018-11-02T10:55:13.491Z,69.74
2018-11-02T10:58:17.031Z,70.20
2018-11-02T11:01:26.210Z,69.94
2018-11-02T11:04:29.622Z,68.90
2018-11-02T11:07:33.512Z,67.76
2018-11-02T11:10:37.167Z,67.05
2018-11-02T11:13:41.044Z,66.26
2018-11-02T11:16:46.459Z,67.45
2018-11-02T11:19:50.369Z,66.49
2018-11-02T11:22:53.958Z,64.15
2018-11-02T11:25:57.465Z,63.36
2018-11-02T11:29:01.113Z,63.58
2018-11-02T11:32:05.339Z,61.94
2018-11-02T11:35:10.650Z,61.44
2018-11-02T11:38:14.244Z,62.72
2018-11-02T11:41:17.861Z,62.11
2018-11-02T11:44:21.561Z,61.60
2018-11-02T11:47:25.275Z,61.06
2018-11-02T11:50:28.843Z,61.03
2018-11-02T11:53:33.576Z,59.10
2018-11-02T11:56:37.180Z,58.06
2018-11-02T11:59:40.745Z,60.17
2018-11-02T12:02:46.474Z,60.07
2018-11-02T12:05:50.553Z,59.52
2018-11-02T12:08:54.135Z,59.25
2018-11-02T12:11:57.935Z,60.88
2018-11-02T12:15:01.477Z,59.28
2018-11-02T12:18:05.408Z,60.42
2018-11-02T12:21:09.994Z,61.10
2018-11-02T12:24:13.653Z,60.01
2018-11-02T12:27:19.347Z,58.82
2018-11-02T12:30:22.920Z,55.86
2018-11-02T12:33:26.566Z,57.11
2018-11-02T12:36:30.300Z,58.35
2018-11-02T12:39:33.805Z,58.09
2018-11-02T12:42:38.014Z,58.66
2018-11-02T12:45:41.569Z,58.26
2018-11-02T12:48:45.518Z,59.51
2018-11-02T12:51:48.989Z,59.49
2018-11-02T12:54:52.544Z,60.42
2018-11-02T12:57:56.056Z,59.61
2018-11-02T13:00:59.531Z,58.82
2018-11-02T13:04:03.021Z,60.11
2018-11-02T13:07:06.673Z,58.47
2018-11-02T13:10:11.585Z,59.84
2018-11-02T13:13:15.167Z,59.02
2018-11-02T13:16:18.732Z,58.28
2018-11-02T13:19:22.240Z,58.68
2018-11-02T13:22:25.808Z,58.19
2018-11-02T13:25:29.275Z,57.86
2018-11-02T13:28:32.733Z,57.20
2018-11-02T13:31:36.255Z,56.27
2018-11-02T13:34:39.704Z,56.89
2018-11-02T13:37:43.917Z,56.41
2018-11-02T13:40:47.428Z,56.80
2018-11-02T13:43:51.065Z,55.52
2018-11-02T13:46:54.558Z,55.67
2018-11-02T13:49:58.004Z,54.91
2018-11-02T13:53:01.501Z,53.43
2018-11-02T13:56:05.456Z,53.91
2018-11-02T13:59:08.850Z,54.33
2018-11-02T14:02:12.281Z,54.37
2018-11-02T14:05:16.676Z,55.13
2018-11-02T14:08:20.200Z,55.70
2018-11-02T14:11:23.648Z,55.83
2018-11-02T14:14:27.211Z,55.75
2018-11-02T14:17:30.690Z,55.97
2018-11-02T14:20:34.184Z,56.38
2018-11-02T14:23:37.756Z,57.19
2018-11-02T14:26:41.321Z,57.09
2018-11-02T14:29:44.789Z,57.68
2018-11-02T14:32:48.908Z,59.04
2018-11-02T14:35:52.445Z,59.68
2018-11-02T14:38:55.910Z,60.25
2018-11-02T14:41:59.441Z,60.59
2018-11-02T14:45:02.937Z,61.09
2018-11-02T14:48:06.513Z,60.67
2018-11-02T14:51:09.889Z,60.04
2018-11-02T14:54:13.525Z,61.26
2018-11-02T14:57:17.246Z,61.21
2018-11-02T15:00:20.754Z,61.67
2018-11-02T15:03:24.291Z,61.89
2018-11-02T15:06:27.767Z,62.57
2018-11-02T15:09:31.217Z,62.61
2018-11-02T15:12:34.677Z,62.64
2018-11-02T15:15:38.146Z,63.00
2018-11-02T15:18:41.746Z,63.27
2018-11-02T15:21:45.287Z,62.94
2018-11-02T15:24:49.541Z,62.99
2018-11-02T15:27:53.067Z,63.38
2018-11-02T15:30:56.574Z,64.12
2018-11-02T15:34:00.104Z,65.51
2018-11-02T15:37:03.634Z,65.46
2018-11-02T15:40:08.228Z,65.68
2018-11-02T15:43:11.699Z,66.58
2018-11-02T15:46:15.093Z,66.82
2018-11-02T15:49:18.620Z,66.57
2018-11-02T15:52:22.161Z,66.39
2018-11-02T15:55:25.660Z,66.22
2018-11-02T15:58:29.159Z,66.03
2018-11-02T16:01:32.796Z,67.06
2018-11-02T16:04:36.204Z,67.50
2018-11-02T16:07:39.966Z,67.29
2018-11-02T16:10:43.508Z,67.87
2018-11-02T16:13:46.971Z,67.97
2018-11-02T16:16:50.474Z,68.00
2018-11-02T16:19:53.936Z,68.36
2018-11-02T16:22:57.391Z,69.12
2018-11-02T16:26:00.904Z,68.66
2018-11-02T16:29:04.375Z,69.25
2018-11-02T16:32:07.870Z,69.98
2018-11-02T16:35:12.595Z,70.88
2018-11-02T16:38:16.128Z,70.53
2018-11-02T16:41:19.549Z,70.02
2018-11-02T16:44:23.194Z,69.31
2018-11-02T16:47:26.833Z,68.83
2018-11-02T16:50:30.540Z,69.09
2018-11-02T16:53:33.799Z,69.75
2018-11-02T16:56:38.346Z,69.47
2018-11-02T16:59:42.026Z,69.49
2018-11-02T17:02:46.580Z,68.50
2018-11-02T17:05:50.361Z,67.84
2018-11-02T17:08:53.869Z,68.43
2018-11-02T17:11:57.415Z,68.78
2018-11-02T17:15:01.012Z,68.47
2018-11-02T17:18:05.163Z,68.68
2018-11-02T17:21:08.733Z,68.05
2018-11-02T17:24:12.513Z,68.71
2018-11-02T17:27:16.251Z,68.28
2018-11-02T17:30:20.754Z,67.68
2018-11-02T17:33:24.243Z,67.55
2018-11-02T17:36:27.737Z,66.70
2018-11-02T17:39:31.288Z,66.08
2018-11-02T17:42:34.751Z,66.21
2018-11-02T17:45:38.357Z,66.15
2018-11-02T17:48:41.902Z,66.39
2018-11-02T17:51:45.551Z,66.75
2018-11-02T17:54:49.205Z,65.74
2018-11-02T17:57:53.912Z,65.48
2018-11-02T18:00:57.786Z,65.55
2018-11-02T18:04:01.376Z,65.06
2018-11-02T18:07:05.605Z,65.27
2018-11-02T18:10:11.341Z,65.90
2018-11-02T18:13:14.946Z,65.88
2018-11-02T18:16:18.639Z,65.92
2018-11-02T18:19:22.287Z,66.34
2018-11-02T18:22:25.938Z,66.92
2018-11-02T18:25:29.593Z,67.33
2018-11-02T18:28:33.137Z,67.76
2018-11-02T18:31:36.682Z,68.07
2018-11-02T18:34:40.333Z,67.20
2018-11-02T18:37:43.909Z,67.84
2018-11-02T18:40:47.509Z,67.44
2018-11-02T18:43:51.295Z,67.81
2018-11-02T18:46:54.935Z,67.44
2018-11-02T18:49:58.501Z,67.49
2018-11-02T18:53:03.104Z,67.83
2018-11-02T18:56:06.705Z,68.11
2018-11-02T18:59:10.335Z,68.37
2018-11-02T19:02:13.919Z,68.69
2018-11-02T19:05:18.544Z,69.43
2018-11-02T19:08:22.505Z,69.44
2018-11-02T19:11:26.234Z,69.71
2018-11-02T19:14:29.969Z,69.49
2018-11-02T19:17:33.530Z,70.14
2018-11-02T19:20:37.136Z,70.81
2018-11-02T19:23:40.730Z,71.47
2018-11-02T19:26:44.605Z,71.75
2018-11-02T19:29:48.459Z,72.38
2018-11-02T19:32:53.006Z,72.76
2018-11-02T19:35:56.507Z,73.13
2018-11-02T19:39:00.131Z,73.62
2018-11-02T19:42:03.701Z,74.14
2018-11-02T19:45:08.150Z,74.55
2018-11-02T19:48:11.706Z,74.86
2018-11-02T19:51:15.137Z,75.19
2018-11-02T19:54:18.902Z,75.52
2018-11-02T19:57:22.454Z,75.94
2018-11-02T20:00:25.908Z,76.51
2018-11-02T20:03:29.413Z,77.05
2018-11-02T20:06:32.871Z,77.18
2018-11-02T20:09:36.369Z,76.94
2018-11-02T20:12:39.866Z,77.11
2018-11-02T20:15:46.759Z,75.26
2018-11-02T20:18:50.289Z,76.12
2018-11-02T20:21:53.910Z,74.97
2018-11-02T20:24:57.390Z,74.46
2018-11-02T20:28:00.870Z,74.44
2018-11-02T20:31:04.528Z,73.63
2018-11-02T20:34:08.551Z,73.59
2018-11-02T20:37:12.028Z,73.48
2018-11-02T20:40:17.242Z,74.07
2018-11-02T20:43:20.702Z,74.42
2018-11-02T20:46:24.224Z,74.50
2018-11-02T20:49:28.888Z,74.71
2018-11-02T20:52:32.429Z,74.45
2018-11-02T20:55:35.905Z,74.27
2018-11-02T20:58:39.429Z,73.80
2018-11-02T21:01:42.872Z,73.28
2018-11-02T21:04:46.583Z,72.81
2018-11-02T21:07:50.863Z,72.73
2018-11-02T21:10:54.319Z,72.19
2018-11-02T21:13:58.204Z,71.94
2018-11-02T21:17:01.775Z,72.21
2018-11-02T21:20:06.952Z,71.73
2018-11-02T21:23:10.646Z,71.80
2018-11-02T21:26:14.123Z,71.69
2018-11-02T21:29:17.635Z,71.54
2018-11-02T21:32:22.293Z,71.48
2018-11-02T21:35:25.868Z,71.53
2018-11-02T21:38:29.533Z,71.48
2018-11-02T21:41:32.970Z,70.80
2018-11-02T21:44:36.458Z,70.96
2018-11-02T21:47:40.098Z,71.07
2018-11-02T21:50:43.546Z,71.22
2018-11-02T21:53:47.107Z,71.03
2018-11-02T21:56:50.627Z,71.09
2018-11-02T21:59:54.103Z,71.28
2018-11-02T22:02:57.640Z,71.38
2018-11-02T22:06:01.358Z,71.62
2018-11-02T22:09:06.771Z,71.62
2018-11-02T22:12:10.241Z,71.56
2018-11-02T22:15:13.711Z,71.89
2018-11-02T22:18:17.232Z,71.87
2018-11-02T22:21:20.681Z,71.76
2018-11-02T22:24:24.191Z,71.63
2018-11-02T22:27:27.744Z,71.31
2018-11-02T22:30:31.244Z,71.07
2018-11-02T22:33:34.759Z,71.26
2018-11-02T22:36:40.300Z,71.43
2018-11-02T22:39:43.745Z,71.41
2018-11-02T22:42:47.337Z,71.83
2018-11-02T22:45:50.926Z,72.09
2018-11-02T22:48:54.480Z,72.42
2018-11-02T22:51:58.154Z,72.40
2018-11-02T22:55:01.750Z,72.78
2018-11-02T22:58:05.709Z,72.77
2018-11-02T23:01:14.316Z,72.62
2018-11-02T23:04:17.859Z,72.71
2018-11-02T23:07:21.428Z,73.05
2018-11-02T23:10:24.996Z,72.99
2018-11-02T23:13:28.514Z,73.13
2018-11-02T23:16:32.007Z,72.96
2018-11-02T23:19:35.659Z,73.19
2018-11-02T23:22:39.018Z,73.01
2018-11-02T23:25:42.507Z,73.32
2018-11-02T23:28:46.046Z,73.11
2018-11-02T23:31:49.536Z,73.19
2018-11-02T23:34:53.119Z,73.60
2018-11-02T23:37:56.748Z,73.88
2018-11-02T23:41:00.264Z,73.59
2018-11-02T23:44:03.806Z,74.03
2018-11-02T23:47:07.355Z,74.20
2018-11-02T23:50:10.906Z,74.20
2018-11-02T23:53:15.364Z,74.15
2018-11-02T23:56:18.936Z,74.09
2018-11-02T23:59:22.534Z,73.99
